Kezdőlap
METAR-TAF:

METAR-TAF

Repülőterek :

Csengtu, Kína

földrajzi szélesség: 30-40N, földrajzi hosszúság: 104-01E, magasság: 508 m

Jelenlegi meteorológiai megfigyelések

A jelentés 44 perccel ezelõtt készült, 00:00 UTC
Különbözõ irányokból fújó szél 2 kt
Hőmérséklet 13°C
Páratartalom 94%
Légköri nyomás 1020 hPa
Látótávolság: 5000 m
Szórványos felhőzet 2600 lábon
Párásság

METAR: ZUUU 150000Z VRB01MPS 5000 BR SCT026 13/12 Q1020 NOSIG

Idő: 08:44 (00:44 UTC)

Előrejelzés

A jelentés 4 órával és 39 perccel ezelõtt készült, 20:05 UTC
Az előrejelzés 15-én 00 óra UTC és 15-én 24 óra UTC között érvényes
Észak-északkeleti szél 8 kt
Látótávolság: 5000 m
Szórványos felhőzet 4000 lábon
enyhe esõ, Párásság

TAF: ZUUU 142005Z 1500/1524 02004MPS 5000 -RA BR SCT040 TX13/1503Z TN11/1523Z

Meteorológiai megfigyelések és előrejelzések több, mint 4000 repülőtéren (METAR és TAF jelentéseket).

A térképen piros és sárga pontok jelzik az elérhető meteorológiai állomásokat.

Mozgassa az egeret a pont fölött, hogy megjelenjen az állomás neve.

Azután kattintson az időjárási megfigyelések és előrejelzések megtekintéséhez.

A térkép megváltoztatása: kattintson a fekete keresztel jelölt zöld gombra ráközelítéshez, a vonallal jelölt zöld gombra távolításhoz, vagy a zöld nyilakra a szomszédos térképek eléréséhez.


METAR-TAF: